createdAt,value
2023-05-14T00:00:44.549Z,32.4154
2023-05-14T00:01:46.942Z,33.8846
2023-05-14T00:02:49.287Z,33.0462
2023-05-14T00:03:51.695Z,32.8667
2023-05-14T00:04:53.897Z,32.1833
2023-05-14T00:05:56.238Z,32.5615
2023-05-14T00:06:58.579Z,30.8615
2023-05-14T00:08:00.921Z,29.9231
2023-05-14T00:09:03.258Z,31.1750
2023-05-14T00:10:05.605Z,29.0462
2023-05-14T00:11:08.047Z,30.2385
2023-05-14T00:12:10.304Z,30.0250
2023-05-14T00:13:12.591Z,31.7000
2023-05-14T00:14:14.946Z,29.9846
2023-05-14T00:15:17.270Z,32.9462
2023-05-14T00:16:19.662Z,32.1692
2023-05-14T00:17:21.975Z,31.3538
2023-05-14T00:18:24.312Z,31.2308
2023-05-14T00:19:26.717Z,31.7462
2023-05-14T00:20:28.956Z,30.7846
2023-05-14T00:21:31.355Z,32.5154
2023-05-14T00:22:33.647Z,32.7167
2023-05-14T00:23:36.078Z,32.6000
2023-05-14T00:24:38.975Z,34.0917
2023-05-14T00:25:40.824Z,33.5583
2023-05-14T00:26:43.973Z,32.6500
2023-05-14T00:27:45.422Z,33.8000
2023-05-14T00:28:47.729Z,34.8833
2023-05-14T00:29:50.777Z,32.5000
2023-05-14T00:30:52.644Z,32.4167
2023-05-14T00:31:54.809Z,32.2000
2023-05-14T00:32:58.112Z,31.6333
2023-05-14T00:33:59.467Z,34.3000
2023-05-14T00:35:01.919Z,33.1833
2023-05-14T00:36:04.423Z,32.3917
2023-05-14T00:37:06.926Z,32.0833
2023-05-14T00:38:09.798Z,31.0083
2023-05-14T00:39:11.061Z,30.6583
2023-05-14T00:40:13.650Z,31.3385
2023-05-14T00:41:16.187Z,32.5667
2023-05-14T00:42:18.187Z,31.8333
2023-05-14T00:43:20.733Z,32.7750
2023-05-14T00:44:22.873Z,31.2917
2023-05-14T00:45:25.354Z,32.5500
2023-05-14T00:46:27.608Z,32.4917
2023-05-14T00:47:30.674Z,34.6500
2023-05-14T00:48:32.433Z,31.0917
2023-05-14T00:49:34.776Z,31.6333
2023-05-14T00:50:36.998Z,31.0417
2023-05-14T00:51:39.185Z,31.0000
2023-05-14T00:52:41.527Z,33.3250
2023-05-14T00:53:43.995Z,33.8833
2023-05-14T00:54:46.261Z,29.6083
2023-05-14T00:55:49.062Z,29.9583
2023-05-14T00:56:51.096Z,32.0000
2023-05-14T00:57:53.311Z,32.9167
2023-05-14T00:58:55.492Z,31.3333
2023-05-14T00:59:58.031Z,31.8769
2023-05-14T01:01:00.779Z,34.7000
2023-05-14T01:02:02.710Z,33.4250
2023-05-14T01:03:05.192Z,35.7500
2023-05-14T01:04:07.936Z,33.5583
2023-05-14T01:05:09.707Z,32.9750
2023-05-14T01:06:11.975Z,31.6833
2023-05-14T01:07:14.346Z,31.9273
2023-05-14T01:08:16.545Z,31.8167
2023-05-14T01:09:18.957Z,32.4417
2023-05-14T01:10:21.624Z,32.8091
2023-05-14T01:11:23.745Z,34.2750
2023-05-14T01:12:26.621Z,35.4667
2023-05-14T01:13:28.285Z,36.0083
2023-05-14T01:14:30.659Z,35.2500
2023-05-14T01:15:33.070Z,34.1455
2023-05-14T01:16:35.331Z,32.8167
2023-05-14T01:17:37.671Z,31.4231
2023-05-14T01:18:39.929Z,33.8250
2023-05-14T01:19:42.343Z,33.9231
2023-05-14T01:20:44.761Z,31.4231
2023-05-14T01:21:47.043Z,30.4417
2023-05-14T01:22:49.408Z,30.5083
2023-05-14T01:23:51.598Z,33.2583
2023-05-14T01:24:54.015Z,32.8692
2023-05-14T01:25:56.415Z,33.5000
2023-05-14T01:26:58.708Z,33.7417
2023-05-14T01:28:00.930Z,33.8750
2023-05-14T01:29:03.625Z,33.5923
2023-05-14T01:30:05.681Z,34.3000
2023-05-14T01:31:08.102Z,35.6667
2023-05-14T01:32:10.693Z,36.3083
2023-05-14T01:33:12.840Z,34.2417
2023-05-14T01:34:15.201Z,35.2000
2023-05-14T01:35:17.360Z,32.1333
2023-05-14T01:36:20.106Z,32.0000
2023-05-14T01:37:22.190Z,32.4583
2023-05-14T01:38:24.456Z,32.1909
2023-05-14T01:39:26.682Z,33.3417
2023-05-14T01:40:28.950Z,33.4000
2023-05-14T01:41:31.477Z,32.3500
2023-05-14T01:42:33.694Z,32.5455
2023-05-14T01:43:36.228Z,32.2308
2023-05-14T01:44:38.315Z,33.2500
2023-05-14T01:45:40.835Z,35.2615
2023-05-14T01:46:43.273Z,34.2667
2023-05-14T01:47:45.613Z,35.1500
2023-05-14T01:48:47.749Z,35.0667
2023-05-14T01:49:50.235Z,32.8667
2023-05-14T01:50:52.439Z,34.3364
2023-05-14T01:51:54.963Z,35.7667
2023-05-14T01:52:57.358Z,33.6917
2023-05-14T01:53:59.664Z,35.8417
2023-05-14T01:55:02.079Z,32.3333
2023-05-14T01:56:04.101Z,34.0667
2023-05-14T01:57:06.391Z,34.1077
2023-05-14T01:58:08.801Z,33.6917
2023-05-14T01:59:11.205Z,32.7917
2023-05-14T02:00:13.532Z,34.2667
2023-05-14T02:01:16.315Z,34.3000
2023-05-14T02:02:18.980Z,33.7917
2023-05-14T02:03:20.654Z,34.1333
2023-05-14T02:04:22.846Z,36.1167
2023-05-14T02:05:25.327Z,34.4167
2023-05-14T02:06:27.983Z,33.3333
2023-05-14T02:07:29.940Z,34.7167
2023-05-14T02:08:32.655Z,33.8417
2023-05-14T02:09:34.581Z,34.1917
2023-05-14T02:10:36.829Z,35.8250
2023-05-14T02:11:39.247Z,34.3538
2023-05-14T02:12:41.712Z,35.5083
2023-05-14T02:13:43.926Z,32.4667
2023-05-14T02:14:46.199Z,34.1909
2023-05-14T02:15:48.708Z,34.2455
2023-05-14T02:16:50.945Z,32.9083
2023-05-14T02:17:53.264Z,33.1000
2023-05-14T02:18:55.937Z,30.8077
2023-05-14T02:19:58.053Z,31.5583
2023-05-14T02:21:00.287Z,31.5750
2023-05-14T02:22:02.690Z,31.9167
2023-05-14T02:23:05.714Z,31.5167
2023-05-14T02:24:07.240Z,30.8083
2023-05-14T02:25:09.947Z,31.4583
2023-05-14T02:26:12.870Z,32.6000
2023-05-14T02:27:14.857Z,34.0583
2023-05-14T02:28:17.013Z,32.9167
2023-05-14T02:29:19.136Z,32.7000
2023-05-14T02:30:22.144Z,31.3667
2023-05-14T02:31:24.074Z,32.5917
2023-05-14T02:32:26.346Z,32.4000
2023-05-14T02:33:28.678Z,32.3167
2023-05-14T02:34:30.717Z,34.5167
2023-05-14T02:35:33.249Z,33.1500
2023-05-14T02:36:35.775Z,30.8333
2023-05-14T02:37:38.136Z,31.1583
2023-05-14T02:38:40.145Z,34.8833
2023-05-14T02:39:42.328Z,34.8667
2023-05-14T02:40:44.671Z,35.2538
2023-05-14T02:41:47.007Z,35.6273
2023-05-14T02:42:49.358Z,35.2385
2023-05-14T02:43:51.709Z,34.1538
2023-05-14T02:44:54.290Z,32.3417
2023-05-14T02:45:56.355Z,33.6500
2023-05-14T02:46:58.792Z,33.6000
2023-05-14T02:48:01.088Z,34.1917
2023-05-14T02:49:03.392Z,35.1583
2023-05-14T02:50:06.027Z,34.5308
2023-05-14T02:51:08.081Z,37.1083
2023-05-14T02:52:10.437Z,36.6000
2023-05-14T02:53:12.708Z,35.2615
2023-05-14T02:54:15.050Z,33.4462
2023-05-14T02:55:17.431Z,32.0231
2023-05-14T02:56:19.719Z,32.5000
2023-05-14T02:57:22.097Z,32.0385
2023-05-14T02:58:27.435Z,33.1917
2023-05-14T02:59:26.980Z,34.8167
2023-05-14T03:00:29.072Z,34.0667
2023-05-14T03:01:32.041Z,34.9333
2023-05-14T03:02:33.970Z,34.0167
2023-05-14T03:03:36.108Z,34.6333
2023-05-14T03:04:38.718Z,34.9417
2023-05-14T03:05:41.042Z,34.7333
2023-05-14T03:06:43.122Z,34.8167
2023-05-14T03:07:45.466Z,33.5769
2023-05-14T03:08:47.793Z,35.2833
2023-05-14T03:09:50.095Z,36.3000
2023-05-14T03:10:52.468Z,32.7154
2023-05-14T03:11:54.780Z,32.5917
2023-05-14T03:12:57.166Z,33.1538
2023-05-14T03:13:59.503Z,32.8231
2023-05-14T03:15:02.104Z,34.4583
2023-05-14T03:16:04.150Z,35.6182
2023-05-14T03:17:06.574Z,36.5000
2023-05-14T03:18:09.134Z,34.9308
2023-05-14T03:19:11.363Z,33.5667
2023-05-14T03:20:13.584Z,34.3917
2023-05-14T03:21:15.997Z,32.7750
2023-05-14T03:22:18.371Z,33.3167
2023-05-14T03:23:20.515Z,36.0583
2023-05-14T03:24:22.974Z,35.1083
2023-05-14T03:25:25.783Z,34.7250
2023-05-14T03:26:27.935Z,35.6667
2023-05-14T03:27:30.636Z,33.0583
2023-05-14T03:28:32.201Z,32.9000
2023-05-14T03:29:34.513Z,33.3077
2023-05-14T03:30:36.996Z,35.3538
2023-05-14T03:31:39.214Z,35.1833
2023-05-14T03:32:41.618Z,34.7000
2023-05-14T03:33:44.044Z,35.5500
2023-05-14T03:34:46.312Z,36.0917
2023-05-14T03:35:48.555Z,37.5167
2023-05-14T03:36:52.007Z,35.0154
2023-05-14T03:37:53.228Z,31.9417
2023-05-14T03:38:55.570Z,35.2462
2023-05-14T03:39:58.037Z,34.6462
2023-05-14T03:41:00.453Z,34.5417
2023-05-14T03:42:02.881Z,33.0500
2023-05-14T03:43:04.904Z,33.1667
2023-05-14T03:44:07.275Z,35.0692
2023-05-14T03:45:09.615Z,34.2833
2023-05-14T03:46:12.258Z,35.5417
2023-05-14T03:47:14.363Z,31.9000
2023-05-14T03:48:16.796Z,32.0333
2023-05-14T03:49:19.016Z,31.5833
2023-05-14T03:50:21.359Z,33.5083
2023-05-14T03:51:23.603Z,34.8917
2023-05-14T03:52:25.942Z,33.0769
2023-05-14T03:53:28.383Z,33.8833
2023-05-14T03:54:30.668Z,32.3000
2023-05-14T03:55:32.925Z,32.7917
2023-05-14T03:56:35.294Z,33.0615
2023-05-14T03:57:37.761Z,31.4750
2023-05-14T03:58:40.069Z,32.9250
2023-05-14T03:59:42.647Z,33.0917
2023-05-14T04:00:44.937Z,33.4250
2023-05-14T04:01:47.290Z,34.5167
2023-05-14T04:02:49.330Z,33.7917
2023-05-14T04:03:51.845Z,32.7250
2023-05-14T04:04:54.438Z,35.3250
2023-05-14T04:05:57.083Z,34.8083
2023-05-14T04:06:58.696Z,34.9167
2023-05-14T04:08:01.013Z,36.3385
2023-05-14T04:09:03.428Z,33.1769
2023-05-14T04:10:06.070Z,35.4154
2023-05-14T04:11:08.061Z,35.0667
2023-05-14T04:12:10.552Z,34.9615
2023-05-14T04:13:13.138Z,36.2583
2023-05-14T04:14:15.212Z,35.8333
2023-05-14T04:15:17.723Z,32.9917
2023-05-14T04:16:19.730Z,35.8333
2023-05-14T04:17:22.090Z,34.7615
2023-05-14T04:18:24.548Z,35.3833
2023-05-14T04:19:26.697Z,33.8167
2023-05-14T04:20:29.190Z,29.5154
2023-05-14T04:21:31.472Z,33.0500
2023-05-14T04:22:33.945Z,32.6833
2023-05-14T04:23:36.134Z,37.0917
2023-05-14T04:24:38.415Z,33.8667
2023-05-14T04:25:40.724Z,34.7769
2023-05-14T04:26:43.180Z,34.4231
2023-05-14T04:27:45.407Z,35.8667
2023-05-14T04:28:47.950Z,34.5846
2023-05-14T04:29:50.329Z,33.7667
2023-05-14T04:30:52.443Z,34.7000
2023-05-14T04:31:54.781Z,35.5385
2023-05-14T04:32:57.131Z,36.8000
2023-05-14T04:33:59.576Z,35.2750
2023-05-14T04:35:01.898Z,35.0833
2023-05-14T04:36:04.088Z,33.9500
2023-05-14T04:37:06.401Z,34.3462
2023-05-14T04:38:08.770Z,33.2692
2023-05-14T04:39:11.180Z,34.8846
2023-05-14T04:40:13.407Z,31.5833
2023-05-14T04:41:15.744Z,32.5154
2023-05-14T04:42:18.080Z,34.0923
2023-05-14T04:43:20.466Z,35.3909
2023-05-14T04:44:22.743Z,35.1000
2023-05-14T04:45:25.086Z,35.7538
2023-05-14T04:46:27.553Z,34.1000
2023-05-14T04:47:29.828Z,36.2083
2023-05-14T04:48:32.084Z,36.2917
2023-05-14T04:49:34.563Z,32.2462
2023-05-14T04:50:36.832Z,32.0500
2023-05-14T04:51:39.097Z,31.7667
2023-05-14T04:52:41.482Z,32.0231
2023-05-14T04:53:45.025Z,33.7833
2023-05-14T04:54:47.410Z,34.3667
2023-05-14T04:55:48.941Z,35.0917
2023-05-14T04:56:50.919Z,33.7833
2023-05-14T04:57:53.169Z,35.0917
2023-05-14T04:58:55.982Z,32.1615
2023-05-14T04:59:57.795Z,33.5083
2023-05-14T05:01:00.504Z,32.6833
2023-05-14T05:02:02.486Z,34.4083
2023-05-14T05:03:05.257Z,35.5182
2023-05-14T05:04:07.205Z,34.7917
2023-05-14T05:05:09.862Z,32.6167
2023-05-14T05:06:12.329Z,33.7167
2023-05-14T05:07:14.143Z,32.1833
2023-05-14T05:08:17.115Z,33.2667
2023-05-14T05:09:19.400Z,34.3500
2023-05-14T05:10:21.272Z,34.4750
2023-05-14T05:11:23.603Z,31.2909
2023-05-14T05:12:25.911Z,31.5917
2023-05-14T05:13:28.270Z,34.4750
2023-05-14T05:14:30.545Z,33.8167
2023-05-14T05:15:33.014Z,33.8250
2023-05-14T05:16:35.559Z,32.1750
2023-05-14T05:17:37.797Z,32.0167
2023-05-14T05:18:40.186Z,32.7667
2023-05-14T05:19:44.118Z,32.3000
2023-05-14T05:20:44.589Z,32.8250
2023-05-14T05:21:47.355Z,30.2615
2023-05-14T05:22:49.395Z,28.7917
2023-05-14T05:23:51.652Z,30.3917
2023-05-14T05:24:54.322Z,31.9833
2023-05-14T05:25:56.349Z,29.2500
2023-05-14T05:26:58.593Z,33.8500
2023-05-14T05:28:00.968Z,34.5000
2023-05-14T05:29:03.298Z,33.4000
2023-05-14T05:30:05.641Z,35.1250
2023-05-14T05:31:08.330Z,35.5250
2023-05-14T05:32:10.435Z,33.5583
2023-05-14T05:33:12.668Z,31.9250
2023-05-14T05:34:14.918Z,31.1750
2023-05-14T05:35:17.343Z,33.6909
2023-05-14T05:36:19.715Z,32.4667
2023-05-14T05:37:22.097Z,33.2000
2023-05-14T05:38:24.298Z,32.5750
2023-05-14T05:39:26.643Z,33.6308
2023-05-14T05:40:28.974Z,33.9615
2023-05-14T05:41:31.321Z,34.3750
2023-05-14T05:42:33.751Z,32.9727
2023-05-14T05:43:36.049Z,33.4417
2023-05-14T05:44:38.462Z,32.6583
2023-05-14T05:45:40.740Z,31.5500
2023-05-14T05:46:43.191Z,30.9167
2023-05-14T05:47:45.488Z,30.8083
2023-05-14T05:48:47.809Z,32.1250
2023-05-14T05:49:50.006Z,34.0250
2023-05-14T05:50:52.377Z,33.1385
2023-05-14T05:51:54.793Z,31.0333
2023-05-14T05:52:57.023Z,31.8583
2023-05-14T05:53:59.339Z,31.3818
2023-05-14T05:55:01.697Z,31.1154
2023-05-14T05:56:04.091Z,32.8154
2023-05-14T05:57:06.456Z,31.4364
2023-05-14T05:58:08.713Z,30.6333
2023-05-14T05:59:11.157Z,30.5692
2023-05-14T06:00:13.484Z,29.8250
2023-05-14T06:01:15.888Z,34.4667
2023-05-14T06:02:18.121Z,32.8667
2023-05-14T06:03:20.410Z,31.3917
2023-05-14T06:04:22.750Z,31.3000
2023-05-14T06:05:25.091Z,33.0769
2023-05-14T06:06:27.372Z,33.2692
2023-05-14T06:07:29.801Z,30.7000
2023-05-14T06:08:32.428Z,31.7083
2023-05-14T06:09:34.401Z,31.4364
2023-05-14T06:10:36.850Z,29.7615
2023-05-14T06:11:39.082Z,31.1333
2023-05-14T06:12:41.444Z,31.4231
2023-05-14T06:13:43.818Z,33.2231
2023-05-14T06:14:46.084Z,31.8667
2023-05-14T06:15:48.407Z,32.3000
2023-05-14T06:16:50.924Z,32.3667
2023-05-14T06:17:53.418Z,30.2583
2023-05-14T06:18:55.505Z,30.0500
2023-05-14T06:19:57.984Z,30.9000
2023-05-14T06:21:00.142Z,30.7083
2023-05-14T06:22:02.791Z,32.2750
2023-05-14T06:23:04.810Z,31.2667
2023-05-14T06:24:07.216Z,33.0231
2023-05-14T06:25:09.610Z,31.9750
2023-05-14T06:26:12.129Z,30.3750
2023-05-14T06:27:14.170Z,31.5583
2023-05-14T06:28:16.442Z,30.9500
2023-05-14T06:29:19.306Z,32.7083
2023-05-14T06:30:21.392Z,30.2583
2023-05-14T06:31:23.449Z,29.1083
2023-05-14T06:32:25.851Z,31.3615
2023-05-14T06:33:28.129Z,32.0615
2023-05-14T06:34:30.551Z,30.9385
2023-05-14T06:35:32.811Z,31.6167
2023-05-14T06:36:35.096Z,31.7750
2023-05-14T06:37:38.247Z,31.9667
2023-05-14T06:38:39.896Z,32.1750
2023-05-14T06:39:42.113Z,31.9417
2023-05-14T06:40:44.512Z,32.3462
2023-05-14T06:41:47.131Z,33.5583
2023-05-14T06:42:49.648Z,33.1750
2023-05-14T06:43:51.580Z,32.9583
2023-05-14T06:44:53.841Z,33.5000
2023-05-14T06:45:56.134Z,35.7667
2023-05-14T06:46:58.572Z,34.3923
2023-05-14T06:48:01.506Z,32.7750
2023-05-14T06:49:03.126Z,33.8583
2023-05-14T06:50:05.435Z,33.6000
2023-05-14T06:51:07.787Z,33.6077
2023-05-14T06:52:10.128Z,33.8077
2023-05-14T06:53:12.431Z,33.1692
2023-05-14T06:54:14.787Z,31.1538
2023-05-14T06:55:17.096Z,32.4077
2023-05-14T06:56:19.447Z,32.6385
2023-05-14T06:57:21.780Z,31.9846
2023-05-14T06:58:24.116Z,32.3769
2023-05-14T06:59:26.552Z,34.0615
2023-05-14T07:00:28.861Z,35.1083
2023-05-14T07:01:31.189Z,36.2538
2023-05-14T07:02:33.496Z,33.6083
2023-05-14T07:03:35.832Z,33.7308
2023-05-14T07:04:39.274Z,33.3308
2023-05-14T07:05:40.609Z,32.8417
2023-05-14T07:06:42.820Z,32.9333
2023-05-14T07:07:45.179Z,34.5538
2023-05-14T07:08:47.482Z,36.3077
2023-05-14T07:09:49.971Z,35.9769
2023-05-14T07:10:52.308Z,34.6833
2023-05-14T07:11:54.624Z,33.7417
2023-05-14T07:12:57.079Z,36.3417
2023-05-14T07:13:59.282Z,34.9083
2023-05-14T07:15:01.585Z,35.5083
2023-05-14T07:16:03.852Z,34.0000
2023-05-14T07:17:06.312Z,36.0769
2023-05-14T07:18:08.548Z,36.5167
2023-05-14T07:19:10.979Z,36.3000
2023-05-14T07:20:13.179Z,36.5250
2023-05-14T07:21:15.555Z,36.1385
2023-05-14T07:22:17.865Z,36.8923
2023-05-14T07:23:20.240Z,37.2538
2023-05-14T07:24:22.512Z,35.5385
2023-05-14T07:25:24.842Z,35.9615
2023-05-14T07:26:27.251Z,34.8231
2023-05-14T07:27:29.569Z,34.8750
2023-05-14T07:28:31.844Z,37.5750
2023-05-14T07:29:34.182Z,37.2000
2023-05-14T07:30:36.516Z,36.4385
2023-05-14T07:31:38.918Z,35.3615
2023-05-14T07:32:41.474Z,36.7750
2023-05-14T07:33:43.526Z,35.0667
2023-05-14T07:34:45.879Z,36.6727
2023-05-14T07:35:48.211Z,34.3923
2023-05-14T07:36:50.563Z,35.4091
2023-05-14T07:37:52.932Z,33.6417
2023-05-14T07:38:55.250Z,29.6083
2023-05-14T07:39:57.591Z,31.5385
2023-05-14T07:40:59.874Z,33.0231
2023-05-14T07:42:02.217Z,31.8615
2023-05-14T07:43:04.584Z,34.4923
2023-05-14T07:44:06.957Z,34.7077
2023-05-14T07:45:09.217Z,34.1583
2023-05-14T07:46:11.591Z,34.5333
2023-05-14T07:47:13.933Z,35.7846
2023-05-14T07:48:16.259Z,34.0917
2023-05-14T07:49:18.555Z,35.6846
2023-05-14T07:50:20.933Z,34.6615
2023-05-14T07:51:23.271Z,33.4500
2023-05-14T07:52:25.562Z,32.8500
2023-05-14T07:53:27.888Z,33.8077
2023-05-14T07:54:30.380Z,33.3385
2023-05-14T07:55:32.597Z,34.4333
2023-05-14T07:56:34.895Z,35.6308
2023-05-14T07:57:37.236Z,37.3000
2023-05-14T07:58:39.557Z,34.5500
2023-05-14T07:59:41.932Z,34.2308
2023-05-14T08:00:44.249Z,34.6385
2023-05-14T08:01:46.611Z,32.4000
2023-05-14T08:02:49.219Z,33.9154
2023-05-14T08:03:51.348Z,35.3167
2023-05-14T08:04:53.647Z,32.6750
2023-05-14T08:05:55.970Z,34.4583
2023-05-14T08:06:58.321Z,33.0750
2023-05-14T08:08:00.613Z,31.7083
2023-05-14T08:09:10.523Z,34.2538
2023-05-14T08:10:05.442Z,33.5545
2023-05-14T08:11:07.711Z,33.5500
2023-05-14T08:12:10.028Z,31.0154
2023-05-14T08:13:12.319Z,32.0231
2023-05-14T08:14:14.746Z,30.1846
2023-05-14T08:15:17.032Z,30.0083
2023-05-14T08:16:19.431Z,29.8000
2023-05-14T08:17:21.773Z,31.0846
2023-05-14T08:18:24.013Z,28.8308
2023-05-14T08:19:26.350Z,28.7769
2023-05-14T08:20:28.846Z,29.8231
2023-05-14T08:21:31.062Z,28.3667
2023-05-14T08:22:33.371Z,27.4385
2023-05-14T08:23:35.968Z,28.7000
2023-05-14T08:26:47.797Z,27.7000
2023-05-14T08:26:47.797Z,27.3000
2023-05-14T08:27:49.854Z,27.9583
2023-05-14T08:28:52.494Z,26.8077
2023-05-14T08:29:54.715Z,26.2583
2023-05-14T08:30:56.981Z,26.5417
2023-05-14T08:32:01.925Z,27.1583
2023-05-14T08:33:01.678Z,25.1273
2023-05-14T08:34:05.088Z,25.4333
2023-05-14T08:35:06.935Z,25.8917
2023-05-14T08:36:08.528Z,26.7917
2023-05-14T08:37:10.899Z,24.8769
2023-05-14T08:38:13.215Z,25.9462
2023-05-14T08:39:15.537Z,25.6923
2023-05-14T08:40:17.881Z,27.0538
2023-05-14T08:41:20.250Z,25.2615
2023-05-14T08:42:22.608Z,25.8154
2023-05-14T08:43:24.882Z,27.2583
2023-05-14T08:44:27.424Z,25.6077
2023-05-14T08:45:29.586Z,27.3000
2023-05-14T08:46:31.920Z,26.5750
2023-05-14T08:47:34.335Z,27.0333
2023-05-14T08:48:37.717Z,26.9250
2023-05-14T08:49:39.089Z,26.3000
2023-05-14T08:50:41.292Z,23.7167
2023-05-14T08:51:43.616Z,25.5462
2023-05-14T08:52:45.941Z,26.4417
2023-05-14T08:53:48.288Z,27.0154
2023-05-14T08:54:50.664Z,27.1231
2023-05-14T08:55:53.220Z,26.4231
2023-05-14T08:56:55.464Z,25.4667
2023-05-14T08:57:58.168Z,24.7583
2023-05-14T08:59:00.022Z,24.4250
2023-05-14T09:00:02.553Z,24.8154
2023-05-14T09:01:04.754Z,25.4500
2023-05-14T09:02:07.145Z,26.3500
2023-05-14T09:03:09.450Z,26.0500
2023-05-14T09:04:11.831Z,26.1250
2023-05-14T09:05:14.163Z,23.5167
2023-05-14T09:06:16.503Z,22.7727
2023-05-14T09:07:18.781Z,25.4083
2023-05-14T09:08:24.298Z,23.3273
2023-05-14T09:09:23.575Z,23.7500
2023-05-14T09:10:26.514Z,21.3750
2023-05-14T09:11:28.149Z,19.4500
2023-05-14T09:12:30.855Z,19.6083
2023-05-14T09:13:33.063Z,20.9583
2023-05-14T09:14:35.147Z,20.0500
2023-05-14T09:15:37.405Z,18.7750
2023-05-14T09:16:39.870Z,15.7308
2023-05-14T09:17:42.234Z,16.0250
2023-05-14T09:18:44.422Z,15.3750
2023-05-14T09:19:46.744Z,15.7077
2023-05-14T09:20:49.057Z,16.5308
2023-05-14T09:21:51.442Z,15.8538
2023-05-14T09:22:53.793Z,14.8091
2023-05-14T09:23:56.055Z,13.2000
2023-05-14T09:24:58.558Z,11.8923
2023-05-14T09:26:00.929Z,12.2500
2023-05-14T09:27:03.115Z,10.5667
2023-05-14T09:28:05.659Z,10.2692
2023-05-14T09:29:08.191Z,10.0667
2023-05-14T09:30:10.270Z,12.3167
2023-05-14T09:31:12.451Z,12.5167
2023-05-14T09:32:14.925Z,12.6923
2023-05-14T09:33:17.195Z,14.2583
2023-05-14T09:34:19.423Z,11.2250
2023-05-14T09:35:21.857Z,11.0308
2023-05-14T09:36:24.164Z,13.3250
2023-05-14T09:37:26.530Z,11.8455
2023-05-14T09:38:28.790Z,10.2917
2023-05-14T09:39:31.270Z,12.7385
2023-05-14T09:40:33.633Z,13.8833
2023-05-14T09:41:35.831Z,12.5500
2023-05-14T09:42:38.160Z,12.5385
2023-05-14T09:43:40.491Z,14.2000
2023-05-14T09:44:42.986Z,16.2077
2023-05-14T09:45:45.179Z,16.9500
2023-05-14T09:46:47.578Z,20.5385
2023-05-14T09:47:49.982Z,18.3250
2023-05-14T09:48:52.218Z,18.8667
2023-05-14T09:49:54.522Z,16.2154
2023-05-14T09:50:56.880Z,16.0083
2023-05-14T09:51:59.223Z,16.1385
2023-05-14T09:53:01.541Z,14.6308
2023-05-14T09:54:03.955Z,13.9308
2023-05-14T09:55:06.202Z,12.0417
2023-05-14T09:56:08.541Z,11.2077
2023-05-14T09:57:10.949Z,9.4615
2023-05-14T09:58:13.241Z,9.1500
2023-05-14T09:59:15.547Z,8.8923
2023-05-14T10:00:17.872Z,8.2692
2023-05-14T10:01:20.308Z,8.1462
2023-05-14T10:02:22.577Z,9.1615
2023-05-14T10:03:24.981Z,8.2769
2023-05-14T10:04:27.411Z,8.6500
2023-05-14T10:05:29.585Z,8.6333
2023-05-14T10:06:32.109Z,7.0538
2023-05-14T10:07:34.260Z,7.2417
2023-05-14T10:08:36.660Z,7.6154
2023-05-14T10:09:39.447Z,8.7769
2023-05-14T10:10:46.613Z,10.5000
2023-05-14T10:11:43.782Z,10.8091
2023-05-14T10:12:46.111Z,8.9091
2023-05-14T10:13:48.329Z,13.1167
2023-05-14T10:14:50.953Z,19.3154
2023-05-14T10:15:53.172Z,18.3833
2023-05-14T10:16:55.466Z,18.3000
2023-05-14T10:17:57.764Z,20.5083
2023-05-14T10:19:00.147Z,21.0333
2023-05-14T10:20:02.422Z,23.1083
2023-05-14T10:21:04.781Z,24.2750
2023-05-14T10:22:07.728Z,24.5167
2023-05-14T10:23:09.396Z,25.0000
2023-05-14T10:24:11.724Z,24.4923
2023-05-14T10:25:14.068Z,26.1846
2023-05-14T10:26:16.513Z,26.7923
2023-05-14T10:27:18.709Z,26.4667
2023-05-14T10:28:22.265Z,26.6154
2023-05-14T10:29:23.409Z,26.0667
2023-05-14T10:30:25.955Z,26.7077
2023-05-14T10:31:28.127Z,26.3333
2023-05-14T10:32:30.413Z,26.8692
2023-05-14T10:33:32.748Z,26.2077
2023-05-14T10:34:35.273Z,25.7538
2023-05-14T10:35:37.435Z,26.3917
2023-05-14T10:36:39.788Z,25.9077
2023-05-14T10:37:42.248Z,26.3538
2023-05-14T10:38:44.448Z,27.7000
2023-05-14T10:39:46.841Z,26.4923
2023-05-14T10:40:51.602Z,26.6000
2023-05-14T10:41:51.482Z,24.8583
2023-05-14T10:42:53.884Z,24.4308
2023-05-14T10:43:56.134Z,25.7583
2023-05-14T10:44:58.722Z,24.3462
2023-05-14T10:46:01.021Z,23.3917
2023-05-14T10:47:03.678Z,20.4500
2023-05-14T10:48:10.286Z,23.9000
2023-05-14T10:49:08.022Z,23.7545
2023-05-14T10:50:11.145Z,21.7333
2023-05-14T10:51:12.832Z,22.0000
2023-05-14T10:52:15.158Z,23.5333
2023-05-14T10:53:17.688Z,23.3750
2023-05-14T10:54:19.676Z,23.0417
2023-05-14T10:55:21.999Z,21.3250
2023-05-14T10:56:24.514Z,21.5000
2023-05-14T10:57:26.739Z,20.4250
2023-05-14T10:58:29.405Z,21.5500
2023-05-14T10:59:31.166Z,20.0083
2023-05-14T11:00:33.517Z,18.1308
2023-05-14T11:01:36.006Z,16.6692
2023-05-14T11:02:38.315Z,15.2333
2023-05-14T11:03:40.848Z,14.9833
2023-05-14T11:04:42.889Z,14.3750
2023-05-14T11:05:45.259Z,13.2250
2023-05-14T11:06:47.646Z,12.1333
2023-05-14T11:07:49.860Z,10.0167
2023-05-14T11:08:52.226Z,9.0154
2023-05-14T11:09:54.549Z,9.3273
2023-05-14T11:10:56.877Z,7.4538
2023-05-14T11:11:59.325Z,7.7462
2023-05-14T11:13:01.558Z,7.0182
2023-05-14T11:14:03.899Z,4.5385
2023-05-14T11:15:06.418Z,3.9231
2023-05-14T11:16:21.894Z,3.2083
2023-05-14T11:17:11.303Z,3.0727
2023-05-14T11:18:13.316Z,3.0750
2023-05-14T11:19:15.861Z,2.8333
2023-05-14T11:20:18.031Z,2.9000
2023-05-14T11:21:20.395Z,2.9000
2023-05-14T11:22:22.823Z,3.1333
2023-05-14T11:23:24.917Z,3.7417
2023-05-14T11:24:27.268Z,2.7846
2023-05-14T11:25:29.605Z,2.9692
2023-05-14T11:26:32.063Z,2.6000
2023-05-14T11:27:34.315Z,2.5500
2023-05-14T11:28:36.720Z,2.4846
2023-05-14T11:29:38.962Z,2.4583
2023-05-14T11:30:41.299Z,2.4231
2023-05-14T11:31:43.662Z,2.8000
2023-05-14T11:32:46.259Z,2.4500
2023-05-14T11:33:48.328Z,3.0250
2023-05-14T11:34:50.658Z,2.6231
2023-05-14T11:35:53.091Z,2.1154
2023-05-14T11:36:55.343Z,2.2750
2023-05-14T11:37:57.669Z,2.6692
2023-05-14T11:39:00.050Z,2.5308
2023-05-14T11:40:02.417Z,2.4333
2023-05-14T11:41:04.685Z,2.2538
2023-05-14T11:42:07.022Z,2.2308
2023-05-14T11:43:09.371Z,3.2923
2023-05-14T11:44:11.764Z,2.8692
2023-05-14T11:45:14.074Z,3.0167
2023-05-14T11:46:16.421Z,2.3231
2023-05-14T11:47:18.754Z,2.8615
2023-05-14T11:48:21.415Z,3.0308
2023-05-14T11:49:23.481Z,2.5417
2023-05-14T11:50:25.911Z,2.7077
2023-05-14T11:51:28.168Z,3.2250
2023-05-14T11:52:30.464Z,2.6769
2023-05-14T11:53:32.822Z,3.3250
2023-05-14T11:54:35.159Z,3.5077
2023-05-14T11:55:37.601Z,3.7308
2023-05-14T11:56:39.838Z,3.6000
2023-05-14T11:57:42.297Z,3.3692
2023-05-14T11:58:44.480Z,3.8167
2023-05-14T11:59:46.827Z,4.1692
2023-05-14T12:00:49.198Z,4.7154
2023-05-14T12:01:51.504Z,5.6615
2023-05-14T12:02:53.941Z,4.4615
2023-05-14T12:03:56.241Z,4.2167
2023-05-14T12:04:58.533Z,4.4583
2023-05-14T12:06:00.915Z,4.7769
2023-05-14T12:07:03.229Z,4.8692
2023-05-14T12:08:05.624Z,5.6000
2023-05-14T12:09:07.916Z,6.1385
2023-05-14T12:10:10.239Z,5.4462
2023-05-14T12:11:12.601Z,5.5545
2023-05-14T12:12:14.969Z,5.7769
2023-05-14T12:13:17.349Z,5.6154
2023-05-14T12:14:19.698Z,5.8417
2023-05-14T12:15:22.024Z,6.3000
2023-05-14T12:16:25.010Z,8.4385
2023-05-14T12:17:27.208Z,7.0750
2023-05-14T12:18:29.161Z,6.3083
2023-05-14T12:19:31.407Z,5.9083
2023-05-14T12:20:33.734Z,7.2538
2023-05-14T12:21:36.232Z,7.4077
2023-05-14T12:22:41.575Z,9.2583
2023-05-14T12:23:42.823Z,9.9417
2023-05-14T12:24:45.600Z,9.6444
2023-05-14T12:25:46.319Z,10.8273
2023-05-14T12:26:48.308Z,13.8727
2023-05-14T12:27:50.762Z,13.7833
2023-05-14T12:28:52.634Z,15.7333
2023-05-14T12:29:54.956Z,16.4333
2023-05-14T12:31:19.850Z,20.7417
2023-05-14T12:31:59.791Z,20.4143
2023-05-14T12:33:02.300Z,21.4333
2023-05-14T12:34:04.743Z,22.5545
2023-05-14T12:35:07.006Z,22.6083
2023-05-14T12:37:11.170Z,23.3000
2023-05-14T12:38:13.992Z,24.6000
2023-05-14T12:39:15.964Z,24.5417